sensor_id;sensor_type;location;lat;lon;timestamp;P1;durP1;ratioP1;P2;durP2;ratioP2
77451;SDS011;66537;52.370;4.832;2023-02-15T00:01:38;89.53;;;41.13;;
77451;SDS011;66537;52.370;4.832;2023-02-15T00:04:05;88.75;;;42.58;;
77451;SDS011;66537;52.370;4.832;2023-02-15T00:06:31;83.68;;;42.50;;
77451;SDS011;66537;52.370;4.832;2023-02-15T00:08:57;87.63;;;41.40;;
77451;SDS011;66537;52.370;4.832;2023-02-15T00:11:23;84.85;;;40.95;;
77451;SDS011;66537;52.370;4.832;2023-02-15T00:14:10;88.68;;;40.00;;
77451;SDS011;66537;52.370;4.832;2023-02-15T00:16:38;84.10;;;39.13;;
77451;SDS011;66537;52.370;4.832;2023-02-15T00:19:04;82.80;;;41.97;;
77451;SDS011;66537;52.370;4.832;2023-02-15T00:21:31;83.35;;;42.30;;
77451;SDS011;66537;52.370;4.832;2023-02-15T00:23:58;84.07;;;41.45;;
77451;SDS011;66537;52.370;4.832;2023-02-15T00:26:25;82.05;;;40.30;;
77451;SDS011;66537;52.370;4.832;2023-02-15T00:28:51;81.90;;;39.30;;
77451;SDS011;66537;52.370;4.832;2023-02-15T00:31:17;78.15;;;39.13;;
77451;SDS011;66537;52.370;4.832;2023-02-15T00:33:42;76.82;;;37.58;;
77451;SDS011;66537;52.370;4.832;2023-02-15T00:36:08;80.47;;;40.25;;
77451;SDS011;66537;52.370;4.832;2023-02-15T00:38:35;81.20;;;39.58;;
77451;SDS011;66537;52.370;4.832;2023-02-15T00:41:02;88.32;;;43.25;;
77451;SDS011;66537;52.370;4.832;2023-02-15T00:43:30;85.10;;;41.22;;
77451;SDS011;66537;52.370;4.832;2023-02-15T00:45:56;83.65;;;41.90;;
77451;SDS011;66537;52.370;4.832;2023-02-15T00:48:22;89.57;;;43.25;;
77451;SDS011;66537;52.370;4.832;2023-02-15T00:50:52;82.18;;;40.78;;
77451;SDS011;66537;52.370;4.832;2023-02-15T00:53:19;83.63;;;40.88;;
77451;SDS011;66537;52.370;4.832;2023-02-15T00:55:45;95.10;;;45.72;;
77451;SDS011;66537;52.370;4.832;2023-02-15T00:58:11;86.30;;;41.95;;
77451;SDS011;66537;52.370;4.832;2023-02-15T01:00:37;76.95;;;38.42;;
77451;SDS011;66537;52.370;4.832;2023-02-15T01:03:03;82.97;;;40.80;;
77451;SDS011;66537;52.370;4.832;2023-02-15T01:05:29;74.00;;;40.03;;
77451;SDS011;66537;52.370;4.832;2023-02-15T01:07:56;76.50;;;38.03;;
77451;SDS011;66537;52.370;4.832;2023-02-15T01:10:21;81.10;;;41.83;;
77451;SDS011;66537;52.370;4.832;2023-02-15T01:12:47;72.95;;;36.67;;
77451;SDS011;66537;52.370;4.832;2023-02-15T01:15:13;79.57;;;38.70;;
77451;SDS011;66537;52.370;4.832;2023-02-15T01:17:38;75.47;;;38.28;;
77451;SDS011;66537;52.370;4.832;2023-02-15T01:20:04;73.13;;;36.80;;
77451;SDS011;66537;52.370;4.832;2023-02-15T01:22:32;72.55;;;36.92;;
77451;SDS011;66537;52.370;4.832;2023-02-15T01:24:57;78.38;;;37.90;;
77451;SDS011;66537;52.370;4.832;2023-02-15T01:27:22;78.83;;;38.47;;
77451;SDS011;66537;52.370;4.832;2023-02-15T01:29:48;78.45;;;39.22;;
77451;SDS011;66537;52.370;4.832;2023-02-15T01:32:13;79.10;;;38.97;;
77451;SDS011;66537;52.370;4.832;2023-02-15T01:34:39;75.37;;;39.70;;
77451;SDS011;66537;52.370;4.832;2023-02-15T01:37:04;78.73;;;37.00;;
77451;SDS011;66537;52.370;4.832;2023-02-15T01:39:29;81.07;;;38.13;;
77451;SDS011;66537;52.370;4.832;2023-02-15T01:41:55;76.72;;;38.90;;
77451;SDS011;66537;52.370;4.832;2023-02-15T01:44:54;76.28;;;38.92;;
77451;SDS011;66537;52.370;4.832;2023-02-15T01:50:25;72.05;;;37.75;;
77451;SDS011;66537;52.370;4.832;2023-02-15T01:55:47;69.53;;;36.05;;
77451;SDS011;66537;52.370;4.832;2023-02-15T01:58:25;70.45;;;35.20;;
77451;SDS011;66537;52.370;4.832;2023-02-15T02:00:52;68.82;;;34.58;;
77451;SDS011;66537;52.370;4.832;2023-02-15T02:03:26;69.80;;;35.22;;
77451;SDS011;66537;52.370;4.832;2023-02-15T02:06:14;72.38;;;35.25;;
77451;SDS011;66537;52.370;4.832;2023-02-15T02:08:40;64.60;;;32.40;;
77451;SDS011;66537;52.370;4.832;2023-02-15T02:11:13;62.78;;;32.63;;
77451;SDS011;66537;52.370;4.832;2023-02-15T02:13:40;68.30;;;32.83;;
77451;SDS011;66537;52.370;4.832;2023-02-15T02:16:15;66.97;;;34.42;;
77451;SDS011;66537;52.370;4.832;2023-02-15T02:21:12;68.47;;;33.60;;
77451;SDS011;66537;52.370;4.832;2023-02-15T02:27:04;65.90;;;32.15;;
77451;SDS011;66537;52.370;4.832;2023-02-15T02:36:31;61.88;;;32.03;;
77451;SDS011;66537;52.370;4.832;2023-02-15T02:39:33;59.72;;;27.42;;
77451;SDS011;66537;52.370;4.832;2023-02-15T02:42:25;65.00;;;31.00;;
77451;SDS011;66537;52.370;4.832;2023-02-15T02:44:55;67.25;;;32.30;;
77451;SDS011;66537;52.370;4.832;2023-02-15T02:47:32;63.38;;;31.90;;
77451;SDS011;66537;52.370;4.832;2023-02-15T02:50:04;65.97;;;32.13;;
77451;SDS011;66537;52.370;4.832;2023-02-15T02:52:43;64.45;;;30.13;;
77451;SDS011;66537;52.370;4.832;2023-02-15T02:57:58;66.40;;;29.92;;
77451;SDS011;66537;52.370;4.832;2023-02-15T03:00:30;59.40;;;30.10;;
77451;SDS011;66537;52.370;4.832;2023-02-15T03:03:02;58.67;;;28.55;;
77451;SDS011;66537;52.370;4.832;2023-02-15T03:05:35;62.58;;;29.60;;
77451;SDS011;66537;52.370;4.832;2023-02-15T03:08:06;54.45;;;28.48;;
77451;SDS011;66537;52.370;4.832;2023-02-15T03:10:34;58.83;;;29.25;;
77451;SDS011;66537;52.370;4.832;2023-02-15T03:13:01;59.45;;;30.20;;
77451;SDS011;66537;52.370;4.832;2023-02-15T03:15:34;58.38;;;29.00;;
77451;SDS011;66537;52.370;4.832;2023-02-15T03:18:22;56.85;;;28.77;;
77451;SDS011;66537;52.370;4.832;2023-02-15T03:20:52;54.83;;;28.55;;
77451;SDS011;66537;52.370;4.832;2023-02-15T03:23:21;53.10;;;27.00;;
77451;SDS011;66537;52.370;4.832;2023-02-15T03:25:53;55.53;;;26.95;;
77451;SDS011;66537;52.370;4.832;2023-02-15T03:28:23;52.13;;;25.15;;
77451;SDS011;66537;52.370;4.832;2023-02-15T03:30:54;54.17;;;28.13;;
77451;SDS011;66537;52.370;4.832;2023-02-15T03:33:22;57.50;;;28.55;;
77451;SDS011;66537;52.370;4.832;2023-02-15T03:38:33;55.33;;;26.27;;
77451;SDS011;66537;52.370;4.832;2023-02-15T03:41:05;57.08;;;28.40;;
77451;SDS011;66537;52.370;4.832;2023-02-15T03:46:32;59.05;;;26.90;;
77451;SDS011;66537;52.370;4.832;2023-02-15T03:49:27;57.83;;;27.58;;
77451;SDS011;66537;52.370;4.832;2023-02-15T03:51:55;55.20;;;26.70;;
77451;SDS011;66537;52.370;4.832;2023-02-15T03:54:30;56.72;;;27.98;;
77451;SDS011;66537;52.370;4.832;2023-02-15T03:57:12;53.72;;;26.23;;
77451;SDS011;66537;52.370;4.832;2023-02-15T04:00:02;53.33;;;27.20;;
77451;SDS011;66537;52.370;4.832;2023-02-15T04:03:03;55.17;;;25.25;;
77451;SDS011;66537;52.370;4.832;2023-02-15T04:05:44;52.60;;;26.45;;
77451;SDS011;66537;52.370;4.832;2023-02-15T04:08:10;55.83;;;27.73;;
77451;SDS011;66537;52.370;4.832;2023-02-15T04:10:36;58.33;;;26.77;;
77451;SDS011;66537;52.370;4.832;2023-02-15T04:13:17;56.03;;;25.88;;
77451;SDS011;66537;52.370;4.832;2023-02-15T04:15:43;57.33;;;27.67;;
77451;SDS011;66537;52.370;4.832;2023-02-15T04:18:27;55.10;;;26.90;;
77451;SDS011;66537;52.370;4.832;2023-02-15T04:21:11;53.95;;;27.00;;
77451;SDS011;66537;52.370;4.832;2023-02-15T04:23:55;51.10;;;25.98;;
77451;SDS011;66537;52.370;4.832;2023-02-15T04:26:39;55.28;;;26.45;;
77451;SDS011;66537;52.370;4.832;2023-02-15T04:29:04;50.90;;;25.77;;
77451;SDS011;66537;52.370;4.832;2023-02-15T04:31:30;53.40;;;26.37;;
77451;SDS011;66537;52.370;4.832;2023-02-15T04:33:55;47.03;;;24.40;;
77451;SDS011;66537;52.370;4.832;2023-02-15T04:36:20;52.67;;;27.37;;
77451;SDS011;66537;52.370;4.832;2023-02-15T04:38:46;54.17;;;26.63;;
77451;SDS011;66537;52.370;4.832;2023-02-15T04:41:11;52.83;;;26.20;;
77451;SDS011;66537;52.370;4.832;2023-02-15T04:43:38;52.50;;;26.95;;
77451;SDS011;66537;52.370;4.832;2023-02-15T04:46:03;62.00;;;26.52;;
77451;SDS011;66537;52.370;4.832;2023-02-15T04:48:29;54.08;;;27.25;;
77451;SDS011;66537;52.370;4.832;2023-02-15T04:50:54;55.03;;;26.50;;
77451;SDS011;66537;52.370;4.832;2023-02-15T04:53:20;57.05;;;27.15;;
77451;SDS011;66537;52.370;4.832;2023-02-15T04:55:45;53.63;;;24.90;;
77451;SDS011;66537;52.370;4.832;2023-02-15T04:58:10;57.63;;;25.97;;
77451;SDS011;66537;52.370;4.832;2023-02-15T05:00:36;51.47;;;25.42;;
77451;SDS011;66537;52.370;4.832;2023-02-15T05:03:01;52.87;;;25.00;;
77451;SDS011;66537;52.370;4.832;2023-02-15T05:05:27;56.30;;;26.85;;
77451;SDS011;66537;52.370;4.832;2023-02-15T05:07:52;55.40;;;26.83;;
77451;SDS011;66537;52.370;4.832;2023-02-15T05:10:17;57.20;;;25.65;;
77451;SDS011;66537;52.370;4.832;2023-02-15T05:12:43;60.33;;;27.20;;
77451;SDS011;66537;52.370;4.832;2023-02-15T05:15:08;55.10;;;27.42;;
77451;SDS011;66537;52.370;4.832;2023-02-15T05:17:34;55.85;;;25.33;;
77451;SDS011;66537;52.370;4.832;2023-02-15T05:20:01;56.38;;;26.60;;
77451;SDS011;66537;52.370;4.832;2023-02-15T05:22:26;54.70;;;26.92;;
77451;SDS011;66537;52.370;4.832;2023-02-15T05:24:51;51.83;;;25.70;;
77451;SDS011;66537;52.370;4.832;2023-02-15T05:27:35;49.35;;;23.98;;
77451;SDS011;66537;52.370;4.832;2023-02-15T05:30:19;53.75;;;26.20;;
77451;SDS011;66537;52.370;4.832;2023-02-15T05:32:44;53.13;;;25.92;;
77451;SDS011;66537;52.370;4.832;2023-02-15T05:35:13;51.33;;;24.83;;
77451;SDS011;66537;52.370;4.832;2023-02-15T05:37:40;49.80;;;24.45;;
77451;SDS011;66537;52.370;4.832;2023-02-15T05:40:06;55.00;;;24.73;;
77451;SDS011;66537;52.370;4.832;2023-02-15T05:42:31;52.55;;;26.77;;
77451;SDS011;66537;52.370;4.832;2023-02-15T05:44:57;51.05;;;25.63;;
77451;SDS011;66537;52.370;4.832;2023-02-15T05:47:22;52.13;;;26.30;;
77451;SDS011;66537;52.370;4.832;2023-02-15T05:49:48;48.27;;;25.23;;
77451;SDS011;66537;52.370;4.832;2023-02-15T05:52:13;51.60;;;24.23;;
77451;SDS011;66537;52.370;4.832;2023-02-15T05:54:38;48.23;;;24.53;;
77451;SDS011;66537;52.370;4.832;2023-02-15T05:57:03;49.47;;;24.40;;
77451;SDS011;66537;52.370;4.832;2023-02-15T05:59:29;45.50;;;23.60;;
77451;SDS011;66537;52.370;4.832;2023-02-15T06:01:54;43.33;;;22.38;;
77451;SDS011;66537;52.370;4.832;2023-02-15T06:04:19;48.27;;;23.87;;
77451;SDS011;66537;52.370;4.832;2023-02-15T06:06:45;46.08;;;23.77;;
77451;SDS011;66537;52.370;4.832;2023-02-15T06:09:11;51.37;;;25.67;;
77451;SDS011;66537;52.370;4.832;2023-02-15T06:11:37;47.38;;;23.73;;
77451;SDS011;66537;52.370;4.832;2023-02-15T06:14:02;43.90;;;22.20;;
77451;SDS011;66537;52.370;4.832;2023-02-15T06:16:28;55.67;;;26.77;;
77451;SDS011;66537;52.370;4.832;2023-02-15T06:18:53;43.60;;;22.23;;
77451;SDS011;66537;52.370;4.832;2023-02-15T06:21:18;46.80;;;23.30;;
77451;SDS011;66537;52.370;4.832;2023-02-15T06:23:44;46.83;;;23.87;;
77451;SDS011;66537;52.370;4.832;2023-02-15T06:26:09;44.30;;;22.08;;
77451;SDS011;66537;52.370;4.832;2023-02-15T06:28:34;45.55;;;22.83;;
77451;SDS011;66537;52.370;4.832;2023-02-15T06:31:00;55.07;;;24.60;;
77451;SDS011;66537;52.370;4.832;2023-02-15T06:33:25;48.97;;;23.27;;
77451;SDS011;66537;52.370;4.832;2023-02-15T06:35:50;42.63;;;21.83;;
77451;SDS011;66537;52.370;4.832;2023-02-15T06:38:16;45.33;;;23.60;;
77451;SDS011;66537;52.370;4.832;2023-02-15T06:40:42;47.97;;;22.85;;
77451;SDS011;66537;52.370;4.832;2023-02-15T06:43:07;46.63;;;21.80;;
77451;SDS011;66537;52.370;4.832;2023-02-15T06:45:33;45.08;;;22.83;;
77451;SDS011;66537;52.370;4.832;2023-02-15T06:47:58;50.40;;;23.20;;
77451;SDS011;66537;52.370;4.832;2023-02-15T06:50:23;47.10;;;22.90;;
77451;SDS011;66537;52.370;4.832;2023-02-15T06:52:49;47.60;;;21.57;;
77451;SDS011;66537;52.370;4.832;2023-02-15T06:55:14;45.20;;;22.57;;
77451;SDS011;66537;52.370;4.832;2023-02-15T06:57:40;43.80;;;22.27;;
77451;SDS011;66537;52.370;4.832;2023-02-15T07:00:05;44.22;;;22.40;;
77451;SDS011;66537;52.370;4.832;2023-02-15T07:02:31;48.33;;;23.60;;
77451;SDS011;66537;52.370;4.832;2023-02-15T07:04:57;44.78;;;22.65;;
77451;SDS011;66537;52.370;4.832;2023-02-15T07:07:22;48.57;;;22.93;;
77451;SDS011;66537;52.370;4.832;2023-02-15T07:09:47;51.03;;;24.07;;
77451;SDS011;66537;52.370;4.832;2023-02-15T07:12:13;49.63;;;23.17;;
77451;SDS011;66537;52.370;4.832;2023-02-15T07:14:57;53.63;;;22.77;;
77451;SDS011;66537;52.370;4.832;2023-02-15T07:17:23;54.88;;;25.73;;
77451;SDS011;66537;52.370;4.832;2023-02-15T07:19:48;46.83;;;22.77;;
77451;SDS011;66537;52.370;4.832;2023-02-15T07:22:14;52.10;;;25.10;;
77451;SDS011;66537;52.370;4.832;2023-02-15T07:24:39;47.30;;;23.95;;
77451;SDS011;66537;52.370;4.832;2023-02-15T07:27:06;48.73;;;22.57;;
77451;SDS011;66537;52.370;4.832;2023-02-15T07:29:32;49.83;;;24.88;;
77451;SDS011;66537;52.370;4.832;2023-02-15T07:31:57;47.47;;;24.00;;
77451;SDS011;66537;52.370;4.832;2023-02-15T07:34:22;47.23;;;23.37;;
77451;SDS011;66537;52.370;4.832;2023-02-15T07:36:50;48.83;;;22.83;;
77451;SDS011;66537;52.370;4.832;2023-02-15T07:39:16;51.50;;;26.60;;
77451;SDS011;66537;52.370;4.832;2023-02-15T07:41:41;54.90;;;26.45;;
77451;SDS011;66537;52.370;4.832;2023-02-15T07:44:10;48.10;;;23.43;;
77451;SDS011;66537;52.370;4.832;2023-02-15T07:46:37;49.03;;;24.02;;
77451;SDS011;66537;52.370;4.832;2023-02-15T07:49:02;52.83;;;25.10;;
77451;SDS011;66537;52.370;4.832;2023-02-15T07:51:28;48.00;;;24.85;;
77451;SDS011;66537;52.370;4.832;2023-02-15T07:53:54;53.45;;;24.83;;
77451;SDS011;66537;52.370;4.832;2023-02-15T07:56:20;48.15;;;24.00;;
77451;SDS011;66537;52.370;4.832;2023-02-15T07:58:45;49.65;;;25.48;;
77451;SDS011;66537;52.370;4.832;2023-02-15T08:01:20;53.65;;;25.88;;
77451;SDS011;66537;52.370;4.832;2023-02-15T08:03:54;49.20;;;23.75;;
77451;SDS011;66537;52.370;4.832;2023-02-15T08:06:21;55.30;;;26.02;;
77451;SDS011;66537;52.370;4.832;2023-02-15T08:08:50;49.60;;;26.13;;
77451;SDS011;66537;52.370;4.832;2023-02-15T08:13:54;48.45;;;23.90;;
77451;SDS011;66537;52.370;4.832;2023-02-15T08:19:24;55.67;;;26.00;;
77451;SDS011;66537;52.370;4.832;2023-02-15T08:21:55;52.22;;;25.65;;
77451;SDS011;66537;52.370;4.832;2023-02-15T08:24:23;53.75;;;24.15;;
77451;SDS011;66537;52.370;4.832;2023-02-15T08:26:49;52.72;;;25.85;;
77451;SDS011;66537;52.370;4.832;2023-02-15T08:29:17;47.90;;;22.80;;
77451;SDS011;66537;52.370;4.832;2023-02-15T08:31:44;48.83;;;25.77;;
77451;SDS011;66537;52.370;4.832;2023-02-15T08:34:11;50.05;;;26.60;;
77451;SDS011;66537;52.370;4.832;2023-02-15T08:36:40;55.10;;;26.98;;
77451;SDS011;66537;52.370;4.832;2023-02-15T08:39:06;50.83;;;26.10;;
77451;SDS011;66537;52.370;4.832;2023-02-15T08:41:32;50.15;;;23.63;;
77451;SDS011;66537;52.370;4.832;2023-02-15T08:44:00;47.85;;;25.33;;
77451;SDS011;66537;52.370;4.832;2023-02-15T08:46:28;48.90;;;24.52;;
77451;SDS011;66537;52.370;4.832;2023-02-15T08:48:55;49.42;;;24.75;;
77451;SDS011;66537;52.370;4.832;2023-02-15T08:51:22;51.45;;;24.15;;
77451;SDS011;66537;52.370;4.832;2023-02-15T08:53:50;50.58;;;24.77;;
77451;SDS011;66537;52.370;4.832;2023-02-15T08:56:18;49.40;;;24.25;;
77451;SDS011;66537;52.370;4.832;2023-02-15T08:58:45;46.78;;;23.58;;
77451;SDS011;66537;52.370;4.832;2023-02-15T09:01:12;52.00;;;26.23;;
77451;SDS011;66537;52.370;4.832;2023-02-15T09:03:47;57.13;;;27.23;;
77451;SDS011;66537;52.370;4.832;2023-02-15T09:06:14;47.10;;;25.88;;
77451;SDS011;66537;52.370;4.832;2023-02-15T09:08:41;51.85;;;24.98;;
77451;SDS011;66537;52.370;4.832;2023-02-15T09:11:11;48.30;;;25.45;;
77451;SDS011;66537;52.370;4.832;2023-02-15T09:13:39;48.40;;;24.88;;
77451;SDS011;66537;52.370;4.832;2023-02-15T09:16:06;46.13;;;24.88;;
77451;SDS011;66537;52.370;4.832;2023-02-15T09:18:34;48.30;;;25.63;;
77451;SDS011;66537;52.370;4.832;2023-02-15T09:21:12;52.00;;;26.67;;
77451;SDS011;66537;52.370;4.832;2023-02-15T09:23:40;51.55;;;26.65;;
77451;SDS011;66537;52.370;4.832;2023-02-15T09:26:07;50.90;;;25.20;;
77451;SDS011;66537;52.370;4.832;2023-02-15T09:28:34;52.67;;;27.35;;
77451;SDS011;66537;52.370;4.832;2023-02-15T09:33:40;53.70;;;26.45;;
77451;SDS011;66537;52.370;4.832;2023-02-15T09:36:17;48.40;;;26.30;;
77451;SDS011;66537;52.370;4.832;2023-02-15T09:38:42;56.72;;;28.48;;
77451;SDS011;66537;52.370;4.832;2023-02-15T09:44:14;50.30;;;25.92;;
77451;SDS011;66537;52.370;4.832;2023-02-15T09:57:41;51.97;;;27.75;;
77451;SDS011;66537;52.370;4.832;2023-02-15T10:20:03;50.60;;;28.05;;
77451;SDS011;66537;52.370;4.832;2023-02-15T10:26:30;57.95;;;29.60;;
77451;SDS011;66537;52.370;4.832;2023-02-15T10:28:51;55.03;;;29.80;;
77451;SDS011;66537;52.370;4.832;2023-02-15T10:33:56;50.42;;;29.58;;
77451;SDS011;66537;52.370;4.832;2023-02-15T10:50:34;58.53;;;31.60;;
77451;SDS011;66537;52.370;4.832;2023-02-15T11:01:41;56.22;;;29.50;;
77451;SDS011;66537;52.370;4.832;2023-02-15T11:06:43;56.20;;;30.77;;
77451;SDS011;66537;52.370;4.832;2023-02-15T11:09:13;56.30;;;30.88;;
77451;SDS011;66537;52.370;4.832;2023-02-15T11:11:43;57.97;;;30.65;;
77451;SDS011;66537;52.370;4.832;2023-02-15T11:14:34;56.17;;;30.42;;
77451;SDS011;66537;52.370;4.832;2023-02-15T11:17:13;61.53;;;30.95;;
77451;SDS011;66537;52.370;4.832;2023-02-15T11:20:29;58.55;;;29.33;;
77451;SDS011;66537;52.370;4.832;2023-02-15T11:22:36;54.58;;;29.10;;
77451;SDS011;66537;52.370;4.832;2023-02-15T11:25:05;59.38;;;29.23;;
77451;SDS011;66537;52.370;4.832;2023-02-15T11:27:42;57.53;;;28.70;;
77451;SDS011;66537;52.370;4.832;2023-02-15T11:30:10;52.03;;;27.10;;
77451;SDS011;66537;52.370;4.832;2023-02-15T11:32:45;54.17;;;27.38;;
77451;SDS011;66537;52.370;4.832;2023-02-15T11:37:51;54.60;;;27.87;;
77451;SDS011;66537;52.370;4.832;2023-02-15T11:40:24;54.78;;;28.27;;
77451;SDS011;66537;52.370;4.832;2023-02-15T11:42:58;56.63;;;28.20;;
77451;SDS011;66537;52.370;4.832;2023-02-15T11:45:32;52.85;;;26.30;;
77451;SDS011;66537;52.370;4.832;2023-02-15T11:47:59;55.45;;;27.85;;
77451;SDS011;66537;52.370;4.832;2023-02-15T11:50:27;54.88;;;28.65;;
77451;SDS011;66537;52.370;4.832;2023-02-15T11:53:06;55.00;;;28.58;;
77451;SDS011;66537;52.370;4.832;2023-02-15T11:55:37;55.72;;;29.08;;
77451;SDS011;66537;52.370;4.832;2023-02-15T11:58:04;53.67;;;27.60;;
77451;SDS011;66537;52.370;4.832;2023-02-15T12:00:42;56.42;;;27.00;;
77451;SDS011;66537;52.370;4.832;2023-02-15T12:03:17;53.20;;;28.17;;
77451;SDS011;66537;52.370;4.832;2023-02-15T12:05:45;61.17;;;30.55;;
77451;SDS011;66537;52.370;4.832;2023-02-15T12:08:18;59.53;;;29.92;;
77451;SDS011;66537;52.370;4.832;2023-02-15T12:10:53;57.90;;;30.30;;
77451;SDS011;66537;52.370;4.832;2023-02-15T12:13:25;61.42;;;31.55;;
77451;SDS011;66537;52.370;4.832;2023-02-15T12:15:54;55.55;;;29.85;;
77451;SDS011;66537;52.370;4.832;2023-02-15T12:21:03;58.15;;;30.63;;
77451;SDS011;66537;52.370;4.832;2023-02-15T12:23:39;63.33;;;32.90;;
77451;SDS011;66537;52.370;4.832;2023-02-15T12:26:11;61.45;;;31.35;;
77451;SDS011;66537;52.370;4.832;2023-02-15T12:28:41;56.35;;;30.50;;
77451;SDS011;66537;52.370;4.832;2023-02-15T12:31:17;58.15;;;31.80;;
77451;SDS011;66537;52.370;4.832;2023-02-15T12:33:46;59.15;;;29.83;;
77451;SDS011;66537;52.370;4.832;2023-02-15T12:36:18;66.65;;;33.33;;
77451;SDS011;66537;52.370;4.832;2023-02-15T12:39:30;60.60;;;31.25;;
77451;SDS011;66537;52.370;4.832;2023-02-15T12:41:32;64.68;;;32.55;;
77451;SDS011;66537;52.370;4.832;2023-02-15T12:44:06;66.38;;;33.25;;
77451;SDS011;66537;52.370;4.832;2023-02-15T12:46:40;60.33;;;30.58;;
77451;SDS011;66537;52.370;4.832;2023-02-15T12:54:47;61.85;;;32.05;;
77451;SDS011;66537;52.370;4.832;2023-02-15T12:59:58;68.30;;;35.00;;
77451;SDS011;66537;52.370;4.832;2023-02-15T13:05:18;63.63;;;33.90;;
77451;SDS011;66537;52.370;4.832;2023-02-15T13:10:29;74.90;;;35.55;;
77451;SDS011;66537;52.370;4.832;2023-02-15T13:12:58;72.07;;;34.90;;
77451;SDS011;66537;52.370;4.832;2023-02-15T13:15:31;60.10;;;33.47;;
77451;SDS011;66537;52.370;4.832;2023-02-15T13:18:00;70.25;;;35.00;;
77451;SDS011;66537;52.370;4.832;2023-02-15T13:20:27;70.68;;;36.53;;
77451;SDS011;66537;52.370;4.832;2023-02-15T13:22:58;70.53;;;36.03;;
77451;SDS011;66537;52.370;4.832;2023-02-15T13:25:28;68.72;;;35.88;;
77451;SDS011;66537;52.370;4.832;2023-02-15T13:28:00;64.57;;;34.63;;
77451;SDS011;66537;52.370;4.832;2023-02-15T13:30:29;66.45;;;36.75;;
77451;SDS011;66537;52.370;4.832;2023-02-15T13:33:06;63.35;;;32.75;;
77451;SDS011;66537;52.370;4.832;2023-02-15T13:35:45;66.40;;;35.67;;
77451;SDS011;66537;52.370;4.832;2023-02-15T13:41:11;70.00;;;36.03;;
77451;SDS011;66537;52.370;4.832;2023-02-15T13:43:45;71.43;;;35.83;;
77451;SDS011;66537;52.370;4.832;2023-02-15T13:46:26;65.28;;;35.88;;
77451;SDS011;66537;52.370;4.832;2023-02-15T14:14:09;63.63;;;32.97;;
77451;SDS011;66537;52.370;4.832;2023-02-15T14:17:07;65.00;;;33.75;;
77451;SDS011;66537;52.370;4.832;2023-02-15T14:19:48;60.58;;;31.90;;
77451;SDS011;66537;52.370;4.832;2023-02-15T14:22:22;70.88;;;35.22;;
77451;SDS011;66537;52.370;4.832;2023-02-15T14:30:25;57.50;;;31.67;;
77451;SDS011;66537;52.370;4.832;2023-02-15T14:32:56;65.47;;;31.30;;
77451;SDS011;66537;52.370;4.832;2023-02-15T14:35:27;68.45;;;32.58;;
77451;SDS011;66537;52.370;4.832;2023-02-15T14:40:38;59.35;;;31.42;;
77451;SDS011;66537;52.370;4.832;2023-02-15T14:43:27;58.10;;;32.05;;
77451;SDS011;66537;52.370;4.832;2023-02-15T14:45:56;62.83;;;32.03;;
77451;SDS011;66537;52.370;4.832;2023-02-15T14:48:32;59.92;;;31.45;;
77451;SDS011;66537;52.370;4.832;2023-02-15T14:51:03;59.45;;;31.30;;
77451;SDS011;66537;52.370;4.832;2023-02-15T14:58:35;58.40;;;29.92;;
77451;SDS011;66537;52.370;4.832;2023-02-15T15:01:06;57.35;;;29.73;;
77451;SDS011;66537;52.370;4.832;2023-02-15T15:03:34;62.42;;;30.75;;
77451;SDS011;66537;52.370;4.832;2023-02-15T15:06:03;62.33;;;31.85;;
77451;SDS011;66537;52.370;4.832;2023-02-15T15:08:39;60.88;;;30.55;;
77451;SDS011;66537;52.370;4.832;2023-02-15T15:13:57;56.17;;;29.25;;
77451;SDS011;66537;52.370;4.832;2023-02-15T15:18:48;62.47;;;31.33;;
77451;SDS011;66537;52.370;4.832;2023-02-15T15:30:46;58.63;;;29.98;;
77451;SDS011;66537;52.370;4.832;2023-02-15T15:40:40;55.58;;;29.65;;
77451;SDS011;66537;52.370;4.832;2023-02-15T15:43:34;58.83;;;30.42;;
77451;SDS011;66537;52.370;4.832;2023-02-15T15:49:24;62.08;;;31.58;;
77451;SDS011;66537;52.370;4.832;2023-02-15T15:51:55;64.53;;;30.88;;
77451;SDS011;66537;52.370;4.832;2023-02-15T15:54:25;63.53;;;31.00;;
77451;SDS011;66537;52.370;4.832;2023-02-15T15:56:58;60.97;;;30.92;;
77451;SDS011;66537;52.370;4.832;2023-02-15T15:59:28;61.38;;;31.02;;
77451;SDS011;66537;52.370;4.832;2023-02-15T16:01:55;56.17;;;28.25;;
77451;SDS011;66537;52.370;4.832;2023-02-15T16:04:29;55.33;;;27.83;;
77451;SDS011;66537;52.370;4.832;2023-02-15T16:09:59;60.95;;;30.08;;
77451;SDS011;66537;52.370;4.832;2023-02-15T16:12:27;65.35;;;31.02;;
77451;SDS011;66537;52.370;4.832;2023-02-15T16:14:55;58.65;;;30.45;;
77451;SDS011;66537;52.370;4.832;2023-02-15T16:17:22;60.88;;;30.25;;
77451;SDS011;66537;52.370;4.832;2023-02-15T16:19:50;64.75;;;31.48;;
77451;SDS011;66537;52.370;4.832;2023-02-15T16:22:21;62.20;;;31.10;;
77451;SDS011;66537;52.370;4.832;2023-02-15T16:27:29;62.75;;;31.02;;
77451;SDS011;66537;52.370;4.832;2023-02-15T16:30:18;61.53;;;32.88;;
77451;SDS011;66537;52.370;4.832;2023-02-15T16:32:47;67.10;;;31.02;;
77451;SDS011;66537;52.370;4.832;2023-02-15T16:35:17;66.25;;;31.67;;
77451;SDS011;66537;52.370;4.832;2023-02-15T16:37:43;62.47;;;30.88;;
77451;SDS011;66537;52.370;4.832;2023-02-15T16:40:26;60.55;;;31.20;;
77451;SDS011;66537;52.370;4.832;2023-02-15T16:43:03;65.82;;;32.70;;
77451;SDS011;66537;52.370;4.832;2023-02-15T16:45:32;62.97;;;32.20;;
77451;SDS011;66537;52.370;4.832;2023-02-15T16:47:58;62.80;;;31.73;;
77451;SDS011;66537;52.370;4.832;2023-02-15T16:50:30;61.58;;;30.80;;
77451;SDS011;66537;52.370;4.832;2023-02-15T16:52:58;61.33;;;30.83;;
77451;SDS011;66537;52.370;4.832;2023-02-15T16:55:25;66.18;;;31.33;;
77451;SDS011;66537;52.370;4.832;2023-02-15T16:57:56;64.35;;;32.25;;
77451;SDS011;66537;52.370;4.832;2023-02-15T17:00:25;63.80;;;31.10;;
77451;SDS011;66537;52.370;4.832;2023-02-15T17:02:59;65.88;;;32.30;;
77451;SDS011;66537;52.370;4.832;2023-02-15T17:05:30;65.93;;;33.40;;
77451;SDS011;66537;52.370;4.832;2023-02-15T17:08:15;61.05;;;30.13;;
77451;SDS011;66537;52.370;4.832;2023-02-15T17:13:23;61.47;;;30.83;;
77451;SDS011;66537;52.370;4.832;2023-02-15T17:18:24;66.53;;;33.08;;
77451;SDS011;66537;52.370;4.832;2023-02-15T17:20:53;70.80;;;33.53;;
77451;SDS011;66537;52.370;4.832;2023-02-15T17:23:21;75.53;;;37.20;;
77451;SDS011;66537;52.370;4.832;2023-02-15T17:25:55;72.32;;;36.35;;
77451;SDS011;66537;52.370;4.832;2023-02-15T17:28:23;80.53;;;35.85;;
77451;SDS011;66537;52.370;4.832;2023-02-15T17:30:51;72.57;;;34.10;;
77451;SDS011;66537;52.370;4.832;2023-02-15T17:33:22;75.90;;;36.50;;
77451;SDS011;66537;52.370;4.832;2023-02-15T17:36:07;72.07;;;36.92;;
77451;SDS011;66537;52.370;4.832;2023-02-15T17:38:37;71.35;;;36.10;;
77451;SDS011;66537;52.370;4.832;2023-02-15T17:41:03;74.80;;;35.17;;
77451;SDS011;66537;52.370;4.832;2023-02-15T17:43:29;70.63;;;37.17;;
77451;SDS011;66537;52.370;4.832;2023-02-15T17:45:54;71.80;;;35.95;;
77451;SDS011;66537;52.370;4.832;2023-02-15T17:48:29;76.05;;;37.50;;
77451;SDS011;66537;52.370;4.832;2023-02-15T17:51:00;72.40;;;36.53;;
77451;SDS011;66537;52.370;4.832;2023-02-15T17:53:27;76.32;;;37.05;;
77451;SDS011;66537;52.370;4.832;2023-02-15T17:55:52;71.18;;;36.15;;